sensor_id;sensor_type;location;lat;lon;timestamp;temperature;humidity
9448;DHT22;4762;48.128;11.376;2023-04-01T00:00:07;6.70;99.90
9448;DHT22;4762;48.128;11.376;2023-04-01T00:02:10;6.70;99.90
9448;DHT22;4762;48.128;11.376;2023-04-01T00:04:15;6.70;99.90
9448;DHT22;4762;48.128;11.376;2023-04-01T00:06:17;6.70;99.90
9448;DHT22;4762;48.128;11.376;2023-04-01T00:08:19;6.70;99.90
9448;DHT22;4762;48.128;11.376;2023-04-01T00:10:21;6.70;99.90
9448;DHT22;4762;48.128;11.376;2023-04-01T00:12:24;6.70;99.90
9448;DHT22;4762;48.128;11.376;2023-04-01T00:14:26;6.70;99.90
9448;DHT22;4762;48.128;11.376;2023-04-01T00:16:28;6.70;99.90
9448;DHT22;4762;48.128;11.376;2023-04-01T00:18:30;6.70;99.90
9448;DHT22;4762;48.128;11.376;2023-04-01T00:20:33;6.60;99.90
9448;DHT22;4762;48.128;11.376;2023-04-01T00:22:35;6.60;99.90
9448;DHT22;4762;48.128;11.376;2023-04-01T00:24:37;6.60;99.90
9448;DHT22;4762;48.128;11.376;2023-04-01T00:26:39;6.50;99.90
9448;DHT22;4762;48.128;11.376;2023-04-01T00:28:42;6.50;99.90
9448;DHT22;4762;48.128;11.376;2023-04-01T00:30:45;6.40;99.90
9448;DHT22;4762;48.128;11.376;2023-04-01T00:32:50;6.40;99.90
9448;DHT22;4762;48.128;11.376;2023-04-01T00:34:51;6.40;99.90
9448;DHT22;4762;48.128;11.376;2023-04-01T00:36:54;6.40;99.90
9448;DHT22;4762;48.128;11.376;2023-04-01T00:38:57;6.40;99.90
9448;DHT22;4762;48.128;11.376;2023-04-01T00:40:59;6.40;99.90
9448;DHT22;4762;48.128;11.376;2023-04-01T00:43:02;6.40;99.90
9448;DHT22;4762;48.128;11.376;2023-04-01T00:47:18;6.40;99.90
9448;DHT22;4762;48.128;11.376;2023-04-01T00:49:21;6.50;99.90
9448;DHT22;4762;48.128;11.376;2023-04-01T00:51:25;6.50;99.90
9448;DHT22;4762;48.128;11.376;2023-04-01T00:53:27;6.60;99.90
9448;DHT22;4762;48.128;11.376;2023-04-01T00:55:30;6.60;99.90
9448;DHT22;4762;48.128;11.376;2023-04-01T00:57:32;6.60;99.90
9448;DHT22;4762;48.128;11.376;2023-04-01T00:59:35;6.60;99.90
9448;DHT22;4762;48.128;11.376;2023-04-01T01:01:36;6.60;99.90
9448;DHT22;4762;48.128;11.376;2023-04-01T01:03:38;6.70;99.90
9448;DHT22;4762;48.128;11.376;2023-04-01T01:05:50;6.70;99.90
9448;DHT22;4762;48.128;11.376;2023-04-01T01:08:10;6.70;99.90
9448;DHT22;4762;48.128;11.376;2023-04-01T01:10:10;6.70;99.90
9448;DHT22;4762;48.128;11.376;2023-04-01T01:12:15;6.80;99.90
9448;DHT22;4762;48.128;11.376;2023-04-01T01:16:54;6.90;99.90
9448;DHT22;4762;48.128;11.376;2023-04-01T01:19:02;6.90;99.90
9448;DHT22;4762;48.128;11.376;2023-04-01T01:30:41;6.80;99.90
9448;DHT22;4762;48.128;11.376;2023-04-01T01:37:06;6.80;99.90
9448;DHT22;4762;48.128;11.376;2023-04-01T01:39:07;6.80;99.90
9448;DHT22;4762;48.128;11.376;2023-04-01T01:41:09;6.80;99.90
9448;DHT22;4762;48.128;11.376;2023-04-01T01:43:13;6.80;99.90
9448;DHT22;4762;48.128;11.376;2023-04-01T01:45:15;6.90;99.90
9448;DHT22;4762;48.128;11.376;2023-04-01T01:47:17;6.90;99.90
9448;DHT22;4762;48.128;11.376;2023-04-01T01:49:19;7.00;99.90
9448;DHT22;4762;48.128;11.376;2023-04-01T01:51:22;6.90;99.90
9448;DHT22;4762;48.128;11.376;2023-04-01T01:53:24;6.90;99.90
9448;DHT22;4762;48.128;11.376;2023-04-01T01:55:31;6.90;99.90
9448;DHT22;4762;48.128;11.376;2023-04-01T01:57:33;7.00;99.90
9448;DHT22;4762;48.128;11.376;2023-04-01T01:59:35;7.00;99.90
9448;DHT22;4762;48.128;11.376;2023-04-01T02:01:37;6.90;99.90
9448;DHT22;4762;48.128;11.376;2023-04-01T02:03:39;6.90;99.90
9448;DHT22;4762;48.128;11.376;2023-04-01T02:05:42;6.90;99.90
9448;DHT22;4762;48.128;11.376;2023-04-01T02:07:46;6.90;99.90
9448;DHT22;4762;48.128;11.376;2023-04-01T02:09:46;6.80;99.90
9448;DHT22;4762;48.128;11.376;2023-04-01T02:11:49;6.90;99.90
9448;DHT22;4762;48.128;11.376;2023-04-01T02:14:09;6.90;99.90
9448;DHT22;4762;48.128;11.376;2023-04-01T02:16:13;6.90;99.90
9448;DHT22;4762;48.128;11.376;2023-04-01T02:18:15;6.80;99.90
9448;DHT22;4762;48.128;11.376;2023-04-01T02:20:21;6.80;99.90
9448;DHT22;4762;48.128;11.376;2023-04-01T02:22:24;6.90;99.90
9448;DHT22;4762;48.128;11.376;2023-04-01T02:24:26;6.80;99.90
9448;DHT22;4762;48.128;11.376;2023-04-01T02:26:28;6.80;99.90
9448;DHT22;4762;48.128;11.376;2023-04-01T02:28:31;6.80;99.90
9448;DHT22;4762;48.128;11.376;2023-04-01T02:30:42;6.80;99.90
9448;DHT22;4762;48.128;11.376;2023-04-01T02:32:44;6.80;99.90
9448;DHT22;4762;48.128;11.376;2023-04-01T02:34:46;6.80;99.90
9448;DHT22;4762;48.128;11.376;2023-04-01T02:36:49;6.80;99.90
9448;DHT22;4762;48.128;11.376;2023-04-01T02:38:51;6.80;99.90
9448;DHT22;4762;48.128;11.376;2023-04-01T02:40:57;6.80;99.90
9448;DHT22;4762;48.128;11.376;2023-04-01T02:42:58;6.70;99.90
9448;DHT22;4762;48.128;11.376;2023-04-01T02:45:01;6.70;99.90
9448;DHT22;4762;48.128;11.376;2023-04-01T02:47:03;6.70;99.90
9448;DHT22;4762;48.128;11.376;2023-04-01T02:49:06;6.60;99.90
9448;DHT22;4762;48.128;11.376;2023-04-01T02:51:08;6.60;99.90
9448;DHT22;4762;48.128;11.376;2023-04-01T02:53:10;6.70;99.90
9448;DHT22;4762;48.128;11.376;2023-04-01T02:55:14;6.70;99.90
9448;DHT22;4762;48.128;11.376;2023-04-01T02:57:16;6.70;99.90
9448;DHT22;4762;48.128;11.376;2023-04-01T02:59:18;6.60;99.90
9448;DHT22;4762;48.128;11.376;2023-04-01T03:01:21;6.60;99.90
9448;DHT22;4762;48.128;11.376;2023-04-01T03:03:24;6.60;99.90
9448;DHT22;4762;48.128;11.376;2023-04-01T03:05:26;6.60;99.90
9448;DHT22;4762;48.128;11.376;2023-04-01T03:07:29;6.60;99.90
9448;DHT22;4762;48.128;11.376;2023-04-01T03:09:31;6.60;99.90
9448;DHT22;4762;48.128;11.376;2023-04-01T03:11:33;6.70;99.90
9448;DHT22;4762;48.128;11.376;2023-04-01T03:13:35;6.60;99.90
9448;DHT22;4762;48.128;11.376;2023-04-01T03:15:38;6.60;99.90
9448;DHT22;4762;48.128;11.376;2023-04-01T03:17:44;6.50;99.90
9448;DHT22;4762;48.128;11.376;2023-04-01T03:19:46;6.50;99.90
9448;DHT22;4762;48.128;11.376;2023-04-01T03:21:49;6.40;99.90
9448;DHT22;4762;48.128;11.376;2023-04-01T03:23:51;6.40;99.90
9448;DHT22;4762;48.128;11.376;2023-04-01T03:25:53;6.40;99.90
9448;DHT22;4762;48.128;11.376;2023-04-01T03:27:55;6.30;99.90
9448;DHT22;4762;48.128;11.376;2023-04-01T03:29:58;6.30;99.90
9448;DHT22;4762;48.128;11.376;2023-04-01T03:32:00;6.20;99.90
9448;DHT22;4762;48.128;11.376;2023-04-01T03:34:02;6.30;99.90
9448;DHT22;4762;48.128;11.376;2023-04-01T03:36:05;6.20;99.90
9448;DHT22;4762;48.128;11.376;2023-04-01T03:38:07;6.30;99.90
9448;DHT22;4762;48.128;11.376;2023-04-01T03:40:10;6.30;99.90
9448;DHT22;4762;48.128;11.376;2023-04-01T03:42:12;6.30;99.90
9448;DHT22;4762;48.128;11.376;2023-04-01T03:44:14;6.30;99.90
9448;DHT22;4762;48.128;11.376;2023-04-01T03:46:18;6.30;99.90
9448;DHT22;4762;48.128;11.376;2023-04-01T03:48:20;6.20;99.90
9448;DHT22;4762;48.128;11.376;2023-04-01T03:50:22;6.20;99.90
9448;DHT22;4762;48.128;11.376;2023-04-01T03:52:24;6.20;99.90
9448;DHT22;4762;48.128;11.376;2023-04-01T03:54:26;6.20;99.90
9448;DHT22;4762;48.128;11.376;2023-04-01T03:56:31;6.20;99.90
9448;DHT22;4762;48.128;11.376;2023-04-01T03:58:33;6.20;99.90
9448;DHT22;4762;48.128;11.376;2023-04-01T04:00:35;6.10;99.90
9448;DHT22;4762;48.128;11.376;2023-04-01T04:02:37;6.10;99.90
9448;DHT22;4762;48.128;11.376;2023-04-01T04:04:39;6.10;99.90
9448;DHT22;4762;48.128;11.376;2023-04-01T04:06:42;6.10;99.90
9448;DHT22;4762;48.128;11.376;2023-04-01T04:08:44;6.00;99.90
9448;DHT22;4762;48.128;11.376;2023-04-01T04:10:46;6.10;99.90
9448;DHT22;4762;48.128;11.376;2023-04-01T04:12:49;6.20;99.90
9448;DHT22;4762;48.128;11.376;2023-04-01T04:14:51;6.30;99.90
9448;DHT22;4762;48.128;11.376;2023-04-01T04:16:53;6.30;99.90
9448;DHT22;4762;48.128;11.376;2023-04-01T04:18:55;6.40;99.90
9448;DHT22;4762;48.128;11.376;2023-04-01T04:20:57;6.40;99.90
9448;DHT22;4762;48.128;11.376;2023-04-01T04:23:00;6.30;99.90
9448;DHT22;4762;48.128;11.376;2023-04-01T04:25:02;6.40;99.90
9448;DHT22;4762;48.128;11.376;2023-04-01T04:27:04;6.40;99.90
9448;DHT22;4762;48.128;11.376;2023-04-01T04:29:07;6.30;99.90
9448;DHT22;4762;48.128;11.376;2023-04-01T04:31:09;6.40;99.90
9448;DHT22;4762;48.128;11.376;2023-04-01T04:33:11;6.40;99.90
9448;DHT22;4762;48.128;11.376;2023-04-01T04:35:13;6.40;99.90
9448;DHT22;4762;48.128;11.376;2023-04-01T04:37:16;6.40;99.90
9448;DHT22;4762;48.128;11.376;2023-04-01T04:39:19;6.40;99.90
9448;DHT22;4762;48.128;11.376;2023-04-01T04:41:21;6.50;99.90
9448;DHT22;4762;48.128;11.376;2023-04-01T04:43:23;6.50;99.90
9448;DHT22;4762;48.128;11.376;2023-04-01T04:45:25;6.60;99.90
9448;DHT22;4762;48.128;11.376;2023-04-01T04:47:27;6.60;99.90
9448;DHT22;4762;48.128;11.376;2023-04-01T04:49:31;6.70;99.90
9448;DHT22;4762;48.128;11.376;2023-04-01T04:51:33;6.70;99.90
9448;DHT22;4762;48.128;11.376;2023-04-01T04:53:35;6.70;99.90
9448;DHT22;4762;48.128;11.376;2023-04-01T04:55:42;6.70;99.90
9448;DHT22;4762;48.128;11.376;2023-04-01T04:57:40;6.80;99.90
9448;DHT22;4762;48.128;11.376;2023-04-01T04:59:42;6.80;99.90
9448;DHT22;4762;48.128;11.376;2023-04-01T05:01:44;6.90;99.90
9448;DHT22;4762;48.128;11.376;2023-04-01T05:03:47;6.90;99.90
9448;DHT22;4762;48.128;11.376;2023-04-01T05:05:50;6.90;99.90
9448;DHT22;4762;48.128;11.376;2023-04-01T05:07:52;6.90;99.90
9448;DHT22;4762;48.128;11.376;2023-04-01T05:09:54;6.90;99.90
9448;DHT22;4762;48.128;11.376;2023-04-01T05:11:56;6.90;99.90
9448;DHT22;4762;48.128;11.376;2023-04-01T05:13:59;6.90;99.90
9448;DHT22;4762;48.128;11.376;2023-04-01T05:16:02;6.90;99.90
9448;DHT22;4762;48.128;11.376;2023-04-01T05:18:04;6.90;99.90
9448;DHT22;4762;48.128;11.376;2023-04-01T05:20:06;6.90;99.90
9448;DHT22;4762;48.128;11.376;2023-04-01T05:22:09;6.90;99.90
9448;DHT22;4762;48.128;11.376;2023-04-01T05:24:11;6.90;99.90
9448;DHT22;4762;48.128;11.376;2023-04-01T05:26:13;6.90;99.90
9448;DHT22;4762;48.128;11.376;2023-04-01T05:28:16;6.90;99.90
9448;DHT22;4762;48.128;11.376;2023-04-01T05:30:21;7.00;99.90
9448;DHT22;4762;48.128;11.376;2023-04-01T05:32:23;7.00;99.90
9448;DHT22;4762;48.128;11.376;2023-04-01T05:34:25;7.10;99.90
9448;DHT22;4762;48.128;11.376;2023-04-01T05:36:27;7.10;99.90
9448;DHT22;4762;48.128;11.376;2023-04-01T05:38:30;7.10;99.90
9448;DHT22;4762;48.128;11.376;2023-04-01T05:40:33;7.20;99.90
9448;DHT22;4762;48.128;11.376;2023-04-01T05:42:35;7.20;99.90
9448;DHT22;4762;48.128;11.376;2023-04-01T05:44:37;7.20;99.90
9448;DHT22;4762;48.128;11.376;2023-04-01T05:46:39;7.10;99.90
9448;DHT22;4762;48.128;11.376;2023-04-01T05:48:42;7.10;99.90
9448;DHT22;4762;48.128;11.376;2023-04-01T05:50:44;7.10;99.90
9448;DHT22;4762;48.128;11.376;2023-04-01T05:52:46;7.20;99.90
9448;DHT22;4762;48.128;11.376;2023-04-01T05:54:48;7.30;99.90
9448;DHT22;4762;48.128;11.376;2023-04-01T05:56:50;7.30;99.90
9448;DHT22;4762;48.128;11.376;2023-04-01T05:58:53;7.50;99.90
9448;DHT22;4762;48.128;11.376;2023-04-01T06:01:02;7.50;99.90
9448;DHT22;4762;48.128;11.376;2023-04-01T06:03:03;7.60;99.90
9448;DHT22;4762;48.128;11.376;2023-04-01T06:05:18;7.50;99.90
9448;DHT22;4762;48.128;11.376;2023-04-01T06:07:19;7.70;99.90
9448;DHT22;4762;48.128;11.376;2023-04-01T06:09:26;7.60;99.90
9448;DHT22;4762;48.128;11.376;2023-04-01T06:11:34;7.60;99.90
9448;DHT22;4762;48.128;11.376;2023-04-01T06:13:45;7.80;99.90
9448;DHT22;4762;48.128;11.376;2023-04-01T06:16:04;8.20;99.90
9448;DHT22;4762;48.128;11.376;2023-04-01T06:22:44;8.30;99.90
9448;DHT22;4762;48.128;11.376;2023-04-01T06:25:10;8.70;99.90
9448;DHT22;4762;48.128;11.376;2023-04-01T06:27:36;8.90;99.90
9448;DHT22;4762;48.128;11.376;2023-04-01T06:29:34;9.30;99.90
9448;DHT22;4762;48.128;11.376;2023-04-01T06:31:44;9.30;99.90
9448;DHT22;4762;48.128;11.376;2023-04-01T06:38:49;10.30;99.90
9448;DHT22;4762;48.128;11.376;2023-04-01T06:40:58;10.10;98.60
9448;DHT22;4762;48.128;11.376;2023-04-01T06:43:04;10.10;98.60
9448;DHT22;4762;48.128;11.376;2023-04-01T06:45:32;10.40;97.50
9448;DHT22;4762;48.128;11.376;2023-04-01T06:47:42;10.70;96.10
9448;DHT22;4762;48.128;11.376;2023-04-01T06:50:52;11.10;95.20
9448;DHT22;4762;48.128;11.376;2023-04-01T06:52:23;11.00;95.60
9448;DHT22;4762;48.128;11.376;2023-04-01T06:55:09;11.30;93.60
9448;DHT22;4762;48.128;11.376;2023-04-01T06:56:48;10.60;96.10
9448;DHT22;4762;48.128;11.376;2023-04-01T06:58:54;11.20;94.20
9448;DHT22;4762;48.128;11.376;2023-04-01T07:00:57;10.20;93.90
9448;DHT22;4762;48.128;11.376;2023-04-01T07:03:05;9.50;96.80
9448;DHT22;4762;48.128;11.376;2023-04-01T07:05:06;9.40;99.90
9448;DHT22;4762;48.128;11.376;2023-04-01T07:07:18;9.10;99.90
9448;DHT22;4762;48.128;11.376;2023-04-01T07:09:22;8.90;99.90
9448;DHT22;4762;48.128;11.376;2023-04-01T07:11:38;9.30;99.90
9448;DHT22;4762;48.128;11.376;2023-04-01T07:13:42;9.50;98.70
9448;DHT22;4762;48.128;11.376;2023-04-01T07:15:46;9.40;99.90
9448;DHT22;4762;48.128;11.376;2023-04-01T07:17:47;9.80;97.00
9448;DHT22;4762;48.128;11.376;2023-04-01T07:20:05;10.00;98.90
9448;DHT22;4762;48.128;11.376;2023-04-01T07:22:47;10.40;95.60
9448;DHT22;4762;48.128;11.376;2023-04-01T07:24:34;10.50;92.80
9448;DHT22;4762;48.128;11.376;2023-04-01T07:26:35;9.70;94.30
9448;DHT22;4762;48.128;11.376;2023-04-01T07:28:48;9.90;98.70
9448;DHT22;4762;48.128;11.376;2023-04-01T07:33:04;10.10;91.10
9448;DHT22;4762;48.128;11.376;2023-04-01T07:35:13;9.80;95.00
9448;DHT22;4762;48.128;11.376;2023-04-01T07:37:15;9.90;94.00
9448;DHT22;4762;48.128;11.376;2023-04-01T07:39:21;10.00;95.40
9448;DHT22;4762;48.128;11.376;2023-04-01T07:41:40;10.00;93.20
9448;DHT22;4762;48.128;11.376;2023-04-01T07:43:44;9.90;94.00
9448;DHT22;4762;48.128;11.376;2023-04-01T07:48:26;9.80;94.10
9448;DHT22;4762;48.128;11.376;2023-04-01T07:50:29;10.00;95.30
9448;DHT22;4762;48.128;11.376;2023-04-01T07:53:36;9.90;93.50
9448;DHT22;4762;48.128;11.376;2023-04-01T07:54:55;10.00;93.00
9448;DHT22;4762;48.128;11.376;2023-04-01T07:56:57;10.10;90.80
9448;DHT22;4762;48.128;11.376;2023-04-01T07:59:40;10.40;90.50
9448;DHT22;4762;48.128;11.376;2023-04-01T08:01:29;9.90;91.80
9448;DHT22;4762;48.128;11.376;2023-04-01T08:03:40;9.90;92.40
9448;DHT22;4762;48.128;11.376;2023-04-01T08:05:46;10.20;95.80
9448;DHT22;4762;48.128;11.376;2023-04-01T08:07:54;10.20;90.70
9448;DHT22;4762;48.128;11.376;2023-04-01T08:10:00;10.10;90.70
9448;DHT22;4762;48.128;11.376;2023-04-01T08:12:04;10.00;91.40
9448;DHT22;4762;48.128;11.376;2023-04-01T08:14:19;10.10;91.60
9448;DHT22;4762;48.128;11.376;2023-04-01T08:16:27;10.30;92.30
9448;DHT22;4762;48.128;11.376;2023-04-01T08:18:36;10.40;91.10
9448;DHT22;4762;48.128;11.376;2023-04-01T08:20:44;10.30;89.90
9448;DHT22;4762;48.128;11.376;2023-04-01T08:22:47;10.50;90.80
9448;DHT22;4762;48.128;11.376;2023-04-01T08:27:34;10.90;88.60
9448;DHT22;4762;48.128;11.376;2023-04-01T08:29:38;11.70;87.10
9448;DHT22;4762;48.128;11.376;2023-04-01T08:31:53;11.90;79.40
9448;DHT22;4762;48.128;11.376;2023-04-01T08:33:57;11.60;79.30
9448;DHT22;4762;48.128;11.376;2023-04-01T08:36:07;11.20;75.70
9448;DHT22;4762;48.128;11.376;2023-04-01T08:38:11;11.40;82.20
9448;DHT22;4762;48.128;11.376;2023-04-01T08:40:18;11.60;79.00
9448;DHT22;4762;48.128;11.376;2023-04-01T08:42:34;11.60;73.80
9448;DHT22;4762;48.128;11.376;2023-04-01T08:47:34;11.00;77.70
9448;DHT22;4762;48.128;11.376;2023-04-01T08:49:48;11.60;77.90
9448;DHT22;4762;48.128;11.376;2023-04-01T08:51:53;11.80;73.50
9448;DHT22;4762;48.128;11.376;2023-04-01T08:54:14;12.00;71.80
9448;DHT22;4762;48.128;11.376;2023-04-01T08:56:18;11.80;71.60
9448;DHT22;4762;48.128;11.376;2023-04-01T08:58:44;11.60;73.60
9448;DHT22;4762;48.128;11.376;2023-04-01T09:00:52;11.50;77.20
9448;DHT22;4762;48.128;11.376;2023-04-01T09:03:02;12.00;74.50
9448;DHT22;4762;48.128;11.376;2023-04-01T09:10:31;12.50;69.80
9448;DHT22;4762;48.128;11.376;2023-04-01T09:12:35;12.60;70.30
9448;DHT22;4762;48.128;11.376;2023-04-01T09:14:49;12.40;67.80
9448;DHT22;4762;48.128;11.376;2023-04-01T09:16:58;11.80;69.40
9448;DHT22;4762;48.128;11.376;2023-04-01T09:19:07;11.80;70.60
9448;DHT22;4762;48.128;11.376;2023-04-01T09:21:17;11.60;71.30
9448;DHT22;4762;48.128;11.376;2023-04-01T09:23:28;11.80;71.60
9448;DHT22;4762;48.128;11.376;2023-04-01T09:25:38;11.70;69.90
9448;DHT22;4762;48.128;11.376;2023-04-01T09:27:45;11.90;69.00
9448;DHT22;4762;48.128;11.376;2023-04-01T09:32:15;12.20;68.00
9448;DHT22;4762;48.128;11.376;2023-04-01T09:34:25;12.60;67.70
9448;DHT22;4762;48.128;11.376;2023-04-01T09:38:39;13.60;63.30
9448;DHT22;4762;48.128;11.376;2023-04-01T09:40:47;13.90;62.50
9448;DHT22;4762;48.128;11.376;2023-04-01T09:43:13;14.20;60.10
9448;DHT22;4762;48.128;11.376;2023-04-01T09:45:19;13.50;61.60
9448;DHT22;4762;48.128;11.376;2023-04-01T09:47:34;13.30;62.00
9448;DHT22;4762;48.128;11.376;2023-04-01T09:49:37;13.40;62.80
9448;DHT22;4762;48.128;11.376;2023-04-01T09:51:53;13.30;60.90
9448;DHT22;4762;48.128;11.376;2023-04-01T09:54:01;13.10;61.60
9448;DHT22;4762;48.128;11.376;2023-04-01T09:58:47;12.60;63.20
9448;DHT22;4762;48.128;11.376;2023-04-01T10:01:14;12.50;64.10
9448;DHT22;4762;48.128;11.376;2023-04-01T10:03:41;12.50;63.80
9448;DHT22;4762;48.128;11.376;2023-04-01T10:06:06;12.60;65.30
9448;DHT22;4762;48.128;11.376;2023-04-01T10:11:14;13.20;63.90
9448;DHT22;4762;48.128;11.376;2023-04-01T10:13:09;12.80;63.60
9448;DHT22;4762;48.128;11.376;2023-04-01T10:15:45;13.30;63.60
9448;DHT22;4762;48.128;11.376;2023-04-01T10:20:08;12.50;63.60
9448;DHT22;4762;48.128;11.376;2023-04-01T10:22:33;12.40;64.40
9448;DHT22;4762;48.128;11.376;2023-04-01T10:29:37;12.40;65.00
9448;DHT22;4762;48.128;11.376;2023-04-01T10:31:47;12.00;65.70
9448;DHT22;4762;48.128;11.376;2023-04-01T10:34:05;11.90;66.60
9448;DHT22;4762;48.128;11.376;2023-04-01T10:36:12;11.70;69.10
9448;DHT22;4762;48.128;11.376;2023-04-01T10:38:17;11.60;70.50
9448;DHT22;4762;48.128;11.376;2023-04-01T10:40:38;11.40;73.10
9448;DHT22;4762;48.128;11.376;2023-04-01T10:45:03;11.10;81.20
9448;DHT22;4762;48.128;11.376;2023-04-01T10:47:23;11.00;79.60
9448;DHT22;4762;48.128;11.376;2023-04-01T10:51:52;10.80;94.10
9448;DHT22;4762;48.128;11.376;2023-04-01T10:54:00;10.30;99.90
9448;DHT22;4762;48.128;11.376;2023-04-01T11:00:26;9.70;99.90
9448;DHT22;4762;48.128;11.376;2023-04-01T11:07:57;9.70;99.90
9448;DHT22;4762;48.128;11.376;2023-04-01T11:12:16;9.70;99.90
9448;DHT22;4762;48.128;11.376;2023-04-01T11:14:42;9.80;99.90
9448;DHT22;4762;48.128;11.376;2023-04-01T11:16:44;9.80;99.90
9448;DHT22;4762;48.128;11.376;2023-04-01T11:21:02;9.90;99.90
9448;DHT22;4762;48.128;11.376;2023-04-01T11:23:53;10.10;99.90
9448;DHT22;4762;48.128;11.376;2023-04-01T11:25:45;10.30;99.90
9448;DHT22;4762;48.128;11.376;2023-04-01T11:30:03;10.40;99.90
9448;DHT22;4762;48.128;11.376;2023-04-01T11:32:25;10.80;99.90
9448;DHT22;4762;48.128;11.376;2023-04-01T11:34:51;10.20;99.90
9448;DHT22;4762;48.128;11.376;2023-04-01T11:37:31;9.80;99.90
9448;DHT22;4762;48.128;11.376;2023-04-01T11:39:26;9.60;99.90
9448;DHT22;4762;48.128;11.376;2023-04-01T11:41:36;9.40;99.90
9448;DHT22;4762;48.128;11.376;2023-04-01T11:43:37;9.20;99.90
9448;DHT22;4762;48.128;11.376;2023-04-01T11:48:17;9.00;99.90
9448;DHT22;4762;48.128;11.376;2023-04-01T11:50:21;8.60;99.90
9448;DHT22;4762;48.128;11.376;2023-04-01T11:52:34;8.60;99.90
9448;DHT22;4762;48.128;11.376;2023-04-01T11:54:42;8.60;99.90
9448;DHT22;4762;48.128;11.376;2023-04-01T11:57:02;8.50;99.90
9448;DHT22;4762;48.128;11.376;2023-04-01T12:01:47;8.50;99.90
9448;DHT22;4762;48.128;11.376;2023-04-01T12:03:54;8.40;99.90
9448;DHT22;4762;48.128;11.376;2023-04-01T12:08:23;8.40;99.90
9448;DHT22;4762;48.128;11.376;2023-04-01T12:10:33;8.30;99.90
9448;DHT22;4762;48.128;11.376;2023-04-01T12:12:37;8.20;99.90
9448;DHT22;4762;48.128;11.376;2023-04-01T12:14:45;8.30;99.90
9448;DHT22;4762;48.128;11.376;2023-04-01T12:17:59;8.30;99.90
9448;DHT22;4762;48.128;11.376;2023-04-01T12:19:23;8.20;99.90
9448;DHT22;4762;48.128;11.376;2023-04-01T12:21:29;8.20;99.90
9448;DHT22;4762;48.128;11.376;2023-04-01T12:23:56;8.30;99.90
9448;DHT22;4762;48.128;11.376;2023-04-01T12:28:36;8.20;99.90
9448;DHT22;4762;48.128;11.376;2023-04-01T12:30:40;8.30;99.90
9448;DHT22;4762;48.128;11.376;2023-04-01T12:34:58;8.20;99.90
9448;DHT22;4762;48.128;11.376;2023-04-01T12:37:19;8.40;99.90
9448;DHT22;4762;48.128;11.376;2023-04-01T12:39:37;8.30;99.90
9448;DHT22;4762;48.128;11.376;2023-04-01T12:41:46;8.30;99.90
9448;DHT22;4762;48.128;11.376;2023-04-01T12:43:57;8.40;99.90
9448;DHT22;4762;48.128;11.376;2023-04-01T12:46:13;8.20;99.90
9448;DHT22;4762;48.128;11.376;2023-04-01T12:49:22;8.20;99.90
9448;DHT22;4762;48.128;11.376;2023-04-01T12:50:40;8.20;99.90
9448;DHT22;4762;48.128;11.376;2023-04-01T12:52:44;8.20;99.90
9448;DHT22;4762;48.128;11.376;2023-04-01T12:57:25;8.30;99.90
9448;DHT22;4762;48.128;11.376;2023-04-01T12:59:28;8.40;99.90
9448;DHT22;4762;48.128;11.376;2023-04-01T13:01:39;8.20;99.90
9448;DHT22;4762;48.128;11.376;2023-04-01T13:03:44;8.20;99.90
9448;DHT22;4762;48.128;11.376;2023-04-01T13:08:22;8.30;99.90
9448;DHT22;4762;48.128;11.376;2023-04-01T13:10:52;8.40;99.90
9448;DHT22;4762;48.128;11.376;2023-04-01T13:15:28;8.20;99.90
9448;DHT22;4762;48.128;11.376;2023-04-01T13:18:09;8.10;99.90
9448;DHT22;4762;48.128;11.376;2023-04-01T13:19:53;8.10;99.90
9448;DHT22;4762;48.128;11.376;2023-04-01T13:22:08;8.10;99.90
9448;DHT22;4762;48.128;11.376;2023-04-01T13:24:29;8.10;99.90
9448;DHT22;4762;48.128;11.376;2023-04-01T13:26:53;8.10;99.90
9448;DHT22;4762;48.128;11.376;2023-04-01T13:28:56;8.10;99.90
9448;DHT22;4762;48.128;11.376;2023-04-01T13:31:02;8.20;99.90
9448;DHT22;4762;48.128;11.376;2023-04-01T13:33:25;8.30;99.90
9448;DHT22;4762;48.128;11.376;2023-04-01T13:35:46;8.20;99.90
9448;DHT22;4762;48.128;11.376;2023-04-01T13:42:28;8.10;99.90
9448;DHT22;4762;48.128;11.376;2023-04-01T13:44:37;8.20;99.90
9448;DHT22;4762;48.128;11.376;2023-04-01T13:47:02;8.30;99.90
9448;DHT22;4762;48.128;11.376;2023-04-01T13:49:07;8.30;99.90
9448;DHT22;4762;48.128;11.376;2023-04-01T13:51:12;8.50;99.90
9448;DHT22;4762;48.128;11.376;2023-04-01T13:56:03;8.60;99.90
9448;DHT22;4762;48.128;11.376;2023-04-01T13:58:38;8.60;99.90
9448;DHT22;4762;48.128;11.376;2023-04-01T14:00:56;8.90;99.90
9448;DHT22;4762;48.128;11.376;2023-04-01T14:03:26;8.80;99.90
9448;DHT22;4762;48.128;11.376;2023-04-01T14:05:59;8.60;99.90
9448;DHT22;4762;48.128;11.376;2023-04-01T14:08:05;8.70;99.90
9448;DHT22;4762;48.128;11.376;2023-04-01T14:10:18;8.80;99.90
9448;DHT22;4762;48.128;11.376;2023-04-01T14:12:25;8.70;99.90
9448;DHT22;4762;48.128;11.376;2023-04-01T14:14:43;8.70;99.90
9448;DHT22;4762;48.128;11.376;2023-04-01T14:16:56;8.70;99.90
9448;DHT22;4762;48.128;11.376;2023-04-01T14:19:03;8.70;99.90
9448;DHT22;4762;48.128;11.376;2023-04-01T14:21:10;8.70;99.90
9448;DHT22;4762;48.128;11.376;2023-04-01T14:23:35;8.80;99.90
9448;DHT22;4762;48.128;11.376;2023-04-01T14:27:56;8.70;99.90
9448;DHT22;4762;48.128;11.376;2023-04-01T14:30:23;8.60;99.90
9448;DHT22;4762;48.128;11.376;2023-04-01T14:32:39;8.50;99.90
9448;DHT22;4762;48.128;11.376;2023-04-01T14:34:52;8.50;99.90
9448;DHT22;4762;48.128;11.376;2023-04-01T14:37:01;8.40;99.90
9448;DHT22;4762;48.128;11.376;2023-04-01T14:41:31;8.40;99.90
9448;DHT22;4762;48.128;11.376;2023-04-01T14:44:24;8.50;99.90
9448;DHT22;4762;48.128;11.376;2023-04-01T14:46:23;8.40;99.90
9448;DHT22;4762;48.128;11.376;2023-04-01T14:48:38;8.20;99.90
9448;DHT22;4762;48.128;11.376;2023-04-01T14:50:48;8.20;99.90
9448;DHT22;4762;48.128;11.376;2023-04-01T14:52:55;8.10;99.90
9448;DHT22;4762;48.128;11.376;2023-04-01T14:54:53;8.10;99.90
9448;DHT22;4762;48.128;11.376;2023-04-01T14:57:24;8.10;99.90
9448;DHT22;4762;48.128;11.376;2023-04-01T14:59:28;8.10;99.90
9448;DHT22;4762;48.128;11.376;2023-04-01T15:04:29;8.30;99.90
9448;DHT22;4762;48.128;11.376;2023-04-01T15:06:38;8.40;99.90
9448;DHT22;4762;48.128;11.376;2023-04-01T15:11:13;8.70;99.90
9448;DHT22;4762;48.128;11.376;2023-04-01T15:13:15;8.70;99.90
9448;DHT22;4762;48.128;11.376;2023-04-01T15:15:35;8.80;99.90
9448;DHT22;4762;48.128;11.376;2023-04-01T15:17:43;8.70;99.90
9448;DHT22;4762;48.128;11.376;2023-04-01T15:20:01;8.70;99.90
9448;DHT22;4762;48.128;11.376;2023-04-01T15:24:24;8.80;99.90
9448;DHT22;4762;48.128;11.376;2023-04-01T15:26:33;9.00;99.90
9448;DHT22;4762;48.128;11.376;2023-04-01T15:28:54;9.00;99.90
9448;DHT22;4762;48.128;11.376;2023-04-01T15:31:05;9.00;99.90
9448;DHT22;4762;48.128;11.376;2023-04-01T15:33:14;8.90;99.90
9448;DHT22;4762;48.128;11.376;2023-04-01T15:35:19;8.90;99.90
9448;DHT22;4762;48.128;11.376;2023-04-01T15:37:22;8.90;99.90
9448;DHT22;4762;48.128;11.376;2023-04-01T15:40:53;9.00;99.90
9448;DHT22;4762;48.128;11.376;2023-04-01T15:43:11;9.00;99.90
9448;DHT22;4762;48.128;11.376;2023-04-01T15:44:41;9.10;99.90
9448;DHT22;4762;48.128;11.376;2023-04-01T15:46:44;9.00;99.90
9448;DHT22;4762;48.128;11.376;2023-04-01T15:52:23;8.90;99.90
9448;DHT22;4762;48.128;11.376;2023-04-01T15:53:53;8.90;99.90